Federal Oshima — VRVY8 — position and weather

sailwx.info

Track history (hours):
 
Tides and Currents Weather Stations Pressure Air Temp Water Temp Dewpoint Dewpoint Depression Visibility Wind Speed Wind Dir Waves Ship Positions

Federal Oshima

Last reported at 2016-Feb-05 12:33 UTC. Time now 2016-Feb-11 06:34 UTC.
Position N 37°41' W 029°59'.

Length 200 m; draft 10.5 m.

Type: Cargo ship. MMSI: 477675000.

Date/timePositionNaut miles runAvg speedWind from/ knotsBaromVisibWave heightAir tempDewpointWater temp
2016-Feb-05 12:33N 37°41' W 029°59'1313.4
2016-Feb-05 11:34N 37°44' W 029°43'1313.4
2016-Feb-05 10:33N 37°48' W 029°27'1313.2
2016-Feb-05 09:33N 37°52' W 029°11'1313.2
2016-Feb-05 08:33N 37°56' W 028°55'1313.2
2016-Feb-05 07:34N 37°60' W 028°39'1313.3
2016-Feb-05 06:33N 38°03' W 028°23'1313.1
2016-Feb-05 05:33N 38°07' W 028°07'1313.3
2016-Feb-05 04:33N 38°11' W 027°50'1313.3
2016-Feb-05 03:33N 38°15' W 027°34'1313.4
2016-Feb-05 02:34N 38°19' W 027°18'1313.3
2016-Feb-05 01:33N 38°23' W 027°02'1313.3
2016-Feb-05 00:34N 38°26' W 026°45'1313.2
2016-Feb-04 23:33N 38°30' W 026°29'1313.2
2016-Feb-04 22:33N 38°34' W 026°13'1313.5
2016-Feb-04 21:33N 38°38' W 025°56'1413.7
2016-Feb-04 20:33N 38°42' W 025°40'1312.9
2016-Feb-04 19:33N 38°45' W 025°24'1312.8
2016-Feb-04 18:33N 38°49' W 025°08'1312.9
2016-Feb-04 17:33N 38°53' W 024°52'  
2016-Jan-30 20:33N 50°31' E 000°07'1111.4
2016-Jan-30 19:33N 50°35' E 000°24'1111.2
2016-Jan-30 18:33N 50°39' E 000°40'1110.8
2016-Jan-30 17:33N 50°46' E 000°53'1110.0
2016-Jan-30 16:29N 50°53' E 001°07'9 9.4
2016-Jan-30 15:33N 50°59' E 001°17'9 9.0
2016-Jan-30 14:33N 51°05' E 001°27'10 9.8
2016-Jan-30 13:33N 51°10' E 001°40'1111.4
2016-Jan-30 12:33N 51°20' E 001°50'1212.2
2016-Jan-30 11:34N 51°30' E 002°01'1211.8
2016-Jan-30 10:33N 51°39' E 002°13'1111.0
2016-Jan-30 09:33N 51°47' E 002°25'  
2016-Jan-27 19:24N 57°48' E 010°32'7 8.1
2016-Jan-27 18:33N 57°48' E 010°45'1110.7
2016-Jan-27 17:32N 57°41' E 010°60'1110.8
2016-Jan-27 16:33N 57°34' E 011°14'1110.9
2016-Jan-27 15:33N 57°26' E 011°28'1211.5
2016-Jan-27 14:33N 57°15' E 011°34'11510.0
2016-Jan-27 03:05N 55°21' E 011°02'610.8
2016-Jan-27 02:33N 55°16' E 011°05'1111.2
2016-Jan-27 01:33N 55°05' E 011°02'1111.5
2016-Jan-27 00:33N 54°55' E 010°52'1111.3
2016-Jan-26 23:33N 54°44' E 010°47'8 8.1
2016-Jan-26 22:33N 54°38' E 010°56'9 9.1
2016-Jan-26 21:33N 54°36' E 011°11'1010.0
2016-Jan-26 20:33N 54°31' E 011°26'1010.4
2016-Jan-26 19:33N 54°27' E 011°43'1010.4
2016-Jan-26 18:33N 54°26' E 012°00'9 8.6
2016-Jan-26 17:33N 54°30' E 012°13'1010.0
2016-Jan-26 16:33N 54°39' E 012°23'1110.8
2016-Jan-26 15:33N 54°45' E 012°38'1111.0
2016-Jan-26 14:33N 54°49' E 012°56'1111.4
2016-Jan-26 13:33N 54°54' E 013°14'  
Track history (hours):
 
Tides and Currents Weather Stations Pressure Air Temp Water Temp Dewpoint Dewpoint Depression Visibility Wind Speed Wind Dir Waves Ship Positions

Federal Oshima

Last reported at 2016-Feb-05 12:33 UTC. Time now 2016-Feb-11 06:34 UTC.
Position N 37°41' W 029°59'.

Length 200 m; draft 10.5 m.

Type: Cargo ship. MMSI: 477675000.

Date/timePositionNaut miles runAvg speedWind from/ knotsBaromVisibWave heightAir tempDewpointWater temp
2016-Feb-05 12:33N 37°41' W 029°59'1313.4
2016-Feb-05 11:34N 37°44' W 029°43'1313.4
2016-Feb-05 10:33N 37°48' W 029°27'1313.2
2016-Feb-05 09:33N 37°52' W 029°11'1313.2
2016-Feb-05 08:33N 37°56' W 028°55'1313.2
2016-Feb-05 07:34N 37°60' W 028°39'1313.3
2016-Feb-05 06:33N 38°03' W 028°23'1313.1
2016-Feb-05 05:33N 38°07' W 028°07'1313.3
2016-Feb-05 04:33N 38°11' W 027°50'1313.3
2016-Feb-05 03:33N 38°15' W 027°34'1313.4
2016-Feb-05 02:34N 38°19' W 027°18'1313.3
2016-Feb-05 01:33N 38°23' W 027°02'1313.3
2016-Feb-05 00:34N 38°26' W 026°45'1313.2
2016-Feb-04 23:33N 38°30' W 026°29'1313.2
2016-Feb-04 22:33N 38°34' W 026°13'1313.5
2016-Feb-04 21:33N 38°38' W 025°56'1413.7
2016-Feb-04 20:33N 38°42' W 025°40'1312.9
2016-Feb-04 19:33N 38°45' W 025°24'1312.8
2016-Feb-04 18:33N 38°49' W 025°08'1312.9
2016-Feb-04 17:33N 38°53' W 024°52'  
2016-Jan-30 20:33N 50°31' E 000°07'1111.4
2016-Jan-30 19:33N 50°35' E 000°24'1111.2
2016-Jan-30 18:33N 50°39' E 000°40'1110.8
2016-Jan-30 17:33N 50°46' E 000°53'1110.0
2016-Jan-30 16:29N 50°53' E 001°07'9 9.4
2016-Jan-30 15:33N 50°59' E 001°17'9 9.0
2016-Jan-30 14:33N 51°05' E 001°27'10 9.8
2016-Jan-30 13:33N 51°10' E 001°40'1111.4
2016-Jan-30 12:33N 51°20' E 001°50'1212.2
2016-Jan-30 11:34N 51°30' E 002°01'1211.8
2016-Jan-30 10:33N 51°39' E 002°13'1111.0
2016-Jan-30 09:33N 51°47' E 002°25'  
2016-Jan-27 19:24N 57°48' E 010°32'7 8.1
2016-Jan-27 18:33N 57°48' E 010°45'1110.7
2016-Jan-27 17:32N 57°41' E 010°60'1110.8
2016-Jan-27 16:33N 57°34' E 011°14'1110.9
2016-Jan-27 15:33N 57°26' E 011°28'1211.5
2016-Jan-27 14:33N 57°15' E 011°34'11510.0
2016-Jan-27 03:05N 55°21' E 011°02'610.8
2016-Jan-27 02:33N 55°16' E 011°05'1111.2
2016-Jan-27 01:33N 55°05' E 011°02'1111.5
2016-Jan-27 00:33N 54°55' E 010°52'1111.3
2016-Jan-26 23:33N 54°44' E 010°47'8 8.1
2016-Jan-26 22:33N 54°38' E 010°56'9 9.1
2016-Jan-26 21:33N 54°36' E 011°11'1010.0
2016-Jan-26 20:33N 54°31' E 011°26'1010.4
2016-Jan-26 19:33N 54°27' E 011°43'1010.4
2016-Jan-26 18:33N 54°26' E 012°00'9 8.6
2016-Jan-26 17:33N 54°30' E 012°13'1010.0
2016-Jan-26 16:33N 54°39' E 012°23'1110.8
2016-Jan-26 15:33N 54°45' E 012°38'1111.0
2016-Jan-26 14:33N 54°49' E 012°56'1111.4
2016-Jan-26 13:33N 54°54' E 013°14'  

Dump ship's entire track history